Time;durP1;ratioP1;P1;durP2;ratioP2;P2;SDS_P1;SDS_P2;PMS_P1;PMS_P2;Temp;Humidity;BMP_temperature;BMP_pressure;BME280_temperature;BME280_humidity;BME280_pressure;Samples;Min_cycle;Max_cycle;Signal;HPM_P1;HPM_P2
2022/03/17 00:02:24;;;;;;;3.00;3.00;;;17.60;64.80;;;;;;5063358;28;44151;-69
2022/03/17 00:04:52;;;;;;;2.80;2.70;;;17.80;64.30;;;;;;5081317;27;44112;-68
2022/03/17 00:07:20;;;;;;;2.77;2.77;;;18.00;63.80;;;;;;5081222;27;43454;-67
2022/03/17 00:09:48;;;;;;;2.80;2.80;;;18.10;63.30;;;;;;5062533;28;44013;-69
2022/03/17 00:12:16;;;;;;;2.77;2.77;;;18.10;63.00;;;;;;5063132;28;43934;-68
2022/03/17 00:14:45;;;;;;;2.67;2.67;;;18.10;63.00;;;;;;5080701;27;43880;-69
2022/03/17 00:17:13;;;;;;;2.50;2.50;;;18.00;63.20;;;;;;5069605;27;45243;-68
2022/03/17 00:19:41;;;;;;;2.70;2.70;;;17.90;63.40;;;;;;5081131;27;44286;-68
2022/03/17 00:22:15;;;;;;;2.60;2.60;;;17.80;63.70;;;;;;5081988;27;43903;-69
2022/03/17 00:24:43;;;;;;;2.70;2.70;;;17.70;64.00;;;;;;5081927;27;44641;-69
2022/03/17 00:27:11;;;;;;;2.60;2.60;;;17.60;64.10;;;;;;5069082;27;46367;-69
2022/03/17 00:29:39;;;;;;;2.57;2.57;;;17.60;64.40;;;;;;5069128;27;43933;-69
2022/03/17 00:32:09;;;;;;;2.73;2.63;;;17.50;64.50;;;;;;5087345;27;44297;-68
2022/03/17 00:35:35;;;;;;;3.20;3.10;;;17.50;64.70;;;;;;5087065;27;43774;-68
2022/03/17 00:37:26;;;;;;;2.80;2.80;;;17.50;64.90;;;;;;5087183;27;43420;-69
2022/03/17 00:39:54;;;;;;;2.90;2.90;;;17.70;64.60;;;;;;5087675;27;44035;-68
2022/03/17 00:42:22;;;;;;;2.70;2.70;;;17.80;64.10;;;;;;5088446;27;43908;-69
2022/03/17 00:44:51;;;;;;;2.60;2.60;;;17.80;63.80;;;;;;5087042;27;45474;-70
2022/03/17 00:47:20;;;;;;;2.90;2.80;;;17.80;63.80;;;;;;5069061;28;46326;-68
2022/03/17 00:49:48;;;;;;;2.87;2.87;;;17.70;63.90;;;;;;5087222;27;43801;-69
2022/03/17 00:52:20;;;;;;;2.87;2.77;;;17.70;64.10;;;;;;5087909;27;44007;-69
2022/03/17 00:54:48;;;;;;;2.67;2.60;;;17.60;64.20;;;;;;5086865;27;43853;-69
2022/03/17 00:57:16;;;;;;;3.00;3.00;;;17.60;64.50;;;;;;5086833;27;44058;-68
2022/03/17 00:59:44;;;;;;;2.83;2.73;;;17.50;64.50;;;;;;5068532;28;44007;-69
2022/03/17 01:02:12;;;;;;;2.67;2.67;;;17.50;64.70;;;;;;5087534;27;43933;-68
2022/03/17 01:04:41;;;;;;;2.97;2.97;;;17.50;64.80;;;;;;5091963;27;43628;-68
2022/03/17 01:07:09;;;;;;;2.70;2.70;;;17.40;64.80;;;;;;5107072;27;43390;-69
2022/03/17 01:09:37;;;;;;;3.00;3.00;;;17.40;64.90;;;;;;5106323;27;43381;-68
2022/03/17 01:12:05;;;;;;;2.90;2.73;;;17.40;65.20;;;;;;5107025;27;43881;-68
2022/03/17 01:14:33;;;;;;;2.93;2.93;;;17.40;65.10;;;;;;5106024;27;44929;-69
2022/03/17 01:17:01;;;;;;;3.07;2.97;;;17.60;64.80;;;;;;5088171;27;44891;-68
2022/03/17 01:19:29;;;;;;;2.70;2.70;;;17.80;64.30;;;;;;5087407;27;43368;-68
2022/03/17 01:21:58;;;;;;;2.90;2.80;;;18.00;63.70;;;;;;5087680;27;44036;-69
2022/03/17 01:24:26;;;;;;;3.13;3.03;;;18.10;63.40;;;;;;5106005;27;43901;-68
2022/03/17 01:26:54;;;;;;;2.83;2.83;;;18.10;63.20;;;;;;5106359;27;43981;-69
2022/03/17 01:29:23;;;;;;;2.80;2.80;;;18.00;63.10;;;;;;5106392;27;43745;-68
2022/03/17 01:31:51;;;;;;;2.70;2.70;;;17.90;63.30;;;;;;5106370;27;44161;-68
2022/03/17 01:34:19;;;;;;;2.80;2.80;;;17.80;63.60;;;;;;5106485;27;43907;-69
2022/03/17 01:36:47;;;;;;;2.87;2.77;;;17.70;63.80;;;;;;5106390;27;43398;-68
2022/03/17 01:39:16;;;;;;;3.10;3.00;;;17.70;64.00;;;;;;5106391;27;43987;-68
2022/03/17 01:41:44;;;;;;;2.83;2.83;;;17.60;64.20;;;;;;5087327;27;43901;-69
2022/03/17 01:44:12;;;;;;;3.23;3.13;;;17.60;64.40;;;;;;5106288;27;44031;-68
2022/03/17 01:49:27;;;;;;;3.00;3.00;;;17.50;64.80;;;;;;5079646;27;43973;-69
2022/03/17 01:51:55;;;;;;;2.70;2.70;;;17.50;64.90;;;;;;5106848;27;44034;-68
2022/03/17 01:54:25;;;;;;;2.90;2.90;;;17.70;64.40;;;;;;5105097;27;44328;-69
2022/03/17 01:57:05;;;;;;;3.20;3.10;;;17.80;64.10;;;;;;5105930;27;44064;-68
2022/03/17 01:59:33;;;;;;;2.80;2.80;;;17.80;63.90;;;;;;5106154;27;43353;-68
2022/03/17 02:02:02;;;;;;;2.83;2.83;;;17.70;63.90;;;;;;5106554;27;43363;-68
2022/03/17 02:04:31;;;;;;;3.30;3.20;;;17.70;64.00;;;;;;5086723;27;46195;-69
2022/03/17 02:06:58;;;;;;;3.20;3.10;;;17.60;64.20;;;;;;5087588;27;45873;-69
2022/03/17 02:09:28;;;;;;;2.80;2.80;;;17.60;64.50;;;;;;5090439;27;43869;-69
2022/03/17 02:14:48;;;;;;;3.20;3.10;;;17.50;64.70;;;;;;5108947;27;44849;-69
2022/03/17 02:17:16;;;;;;;2.83;2.83;;;17.40;64.70;;;;;;5109559;27;43421;-69
2022/03/17 02:19:44;;;;;;;2.90;2.90;;;17.40;64.80;;;;;;5090451;27;43961;-69
2022/03/17 02:22:14;;;;;;;2.90;2.90;;;17.40;64.90;;;;;;5109774;27;44098;-69
2022/03/17 02:27:29;;;;;;;3.17;3.10;;;17.40;65.20;;;;;;5108903;27;44009;-68
2022/03/17 02:29:57;;;;;;;2.97;2.97;;;17.50;65.10;;;;;;5109783;27;43990;-69
2022/03/17 02:32:25;;;;;;;3.00;3.00;;;17.70;64.50;;;;;;5090894;27;43542;-68
2022/03/17 02:34:54;;;;;;;2.80;2.80;;;17.90;64.00;;;;;;5090189;27;46899;-69
2022/03/17 02:37:24;;;;;;;2.77;2.77;;;18.00;63.40;;;;;;5108920;27;43975;-68
2022/03/17 02:39:53;;;;;;;3.00;3.00;;;18.10;63.20;;;;;;5109006;27;43405;-69
2022/03/17 02:42:21;;;;;;;2.90;2.90;;;18.10;63.00;;;;;;5109373;27;43983;-68
2022/03/17 02:44:49;;;;;;;3.00;3.00;;;18.00;63.10;;;;;;5108814;27;43893;-68
2022/03/17 02:47:17;;;;;;;3.20;3.10;;;17.90;63.30;;;;;;5108904;27;43952;-68
2022/03/17 02:49:46;;;;;;;3.00;3.00;;;17.80;63.70;;;;;;5109020;27;43947;-69
2022/03/17 02:52:14;;;;;;;3.03;3.03;;;17.70;63.90;;;;;;5109447;27;43875;-68
2022/03/17 02:54:42;;;;;;;2.83;2.83;;;17.60;64.10;;;;;;5108133;27;43940;-69
2022/03/17 02:57:11;;;;;;;2.87;2.87;;;17.60;64.30;;;;;;5108528;27;44002;-69
2022/03/17 02:59:39;;;;;;;3.13;3.13;;;17.50;64.50;;;;;;5108441;27;43969;-68
2022/03/17 03:02:07;;;;;;;3.03;3.03;;;17.50;64.60;;;;;;5090809;27;44061;-69
2022/03/17 03:04:36;;;;;;;3.13;3.03;;;17.50;65.00;;;;;;5108760;27;44908;-68
2022/03/17 03:07:06;;;;;;;3.30;3.20;;;17.50;65.10;;;;;;5108613;27;43948;-69
2022/03/17 03:09:33;;;;;;;2.93;2.93;;;17.70;64.60;;;;;;5108224;27;43908;-68
2022/03/17 03:12:01;;;;;;;2.90;2.90;;;17.80;64.10;;;;;;5090646;27;44412;-69
2022/03/17 03:14:31;;;;;;;3.10;3.00;;;17.80;63.90;;;;;;5108273;27;44021;-69
2022/03/17 03:16:59;;;;;;;3.00;2.90;;;17.70;64.00;;;;;;5108623;27;43952;-68
2022/03/17 03:19:27;;;;;;;3.17;3.07;;;17.70;64.10;;;;;;5108886;27;43912;-68
2022/03/17 03:21:55;;;;;;;3.13;3.07;;;17.60;64.30;;;;;;5109294;27;43924;-68
2022/03/17 03:24:23;;;;;;;3.03;3.03;;;17.60;64.50;;;;;;5088704;27;45794;-68
2022/03/17 03:26:51;;;;;;;3.10;3.10;;;17.50;64.60;;;;;;5107965;27;43886;-68
2022/03/17 03:29:23;;;;;;;3.30;3.20;;;17.50;64.80;;;;;;5108454;27;43882;-68
2022/03/17 03:31:52;;;;;;;3.53;3.43;;;17.40;64.90;;;;;;5108522;27;44049;-68
2022/03/17 03:34:20;;;;;;;3.13;3.03;;;17.40;65.70;;;;;;5107929;27;44039;-68
2022/03/17 03:39:33;;;;;;;3.27;3.17;;;17.40;65.10;;;;;;5082056;27;43954;-68
2022/03/17 03:42:01;;;;;;;3.50;3.40;;;17.40;65.40;;;;;;5108630;27;43907;-69
2022/03/17 03:44:29;;;;;;;3.03;3.00;;;17.40;65.30;;;;;;5107324;27;44052;-68
2022/03/17 03:46:58;;;;;;;3.80;3.70;;;17.60;65.00;;;;;;5108168;27;44005;-69
2022/03/17 03:49:27;;;;;;;3.60;3.50;;;17.80;64.40;;;;;;5108286;27;43994;-69
2022/03/17 03:51:54;;;;;;;3.33;3.23;;;18.00;63.90;;;;;;5108644;27;43431;-68
2022/03/17 03:54:22;;;;;;;3.13;3.10;;;18.10;63.40;;;;;;5089222;27;45782;-69
2022/03/17 03:56:51;;;;;;;3.07;3.07;;;18.10;63.20;;;;;;5107482;27;44144;-68
2022/03/17 03:59:20;;;;;;;3.20;3.10;;;18.00;63.30;;;;;;5108126;27;43988;-68
2022/03/17 04:01:48;;;;;;;3.00;3.00;;;17.90;63.50;;;;;;5108340;27;44110;-68
2022/03/17 04:04:19;;;;;;;3.10;3.07;;;17.80;63.70;;;;;;5089452;27;46191;-69
2022/03/17 04:06:48;;;;;;;3.47;3.37;;;17.70;64.00;;;;;;5107125;27;44009;-69
2022/03/17 04:09:17;;;;;;;3.00;3.00;;;17.60;64.20;;;;;;5108189;27;43970;-69
2022/03/17 04:11:45;;;;;;;3.13;3.13;;;17.60;64.40;;;;;;5107823;27;43654;-68
2022/03/17 04:14:14;;;;;;;3.00;3.00;;;17.50;64.50;;;;;;5088945;27;45450;-68
2022/03/17 04:16:42;;;;;;;3.13;3.13;;;17.50;64.80;;;;;;5102970;27;43902;-67
2022/03/17 04:19:10;;;;;;;3.60;3.50;;;17.50;65.00;;;;;;5088302;27;43390;-69
2022/03/17 04:21:39;;;;;;;3.50;3.40;;;17.50;65.10;;;;;;5087723;27;44205;-68
2022/03/17 04:24:07;;;;;;;3.10;3.10;;;17.60;64.70;;;;;;5087699;27;43756;-69
2022/03/17 04:26:35;;;;;;;3.10;3.10;;;17.80;64.30;;;;;;5087628;27;43961;-68
2022/03/17 04:29:03;;;;;;;3.30;3.20;;;17.80;64.00;;;;;;5088106;27;44027;-68
2022/03/17 04:31:31;;;;;;;3.20;3.20;;;17.80;63.90;;;;;;5086488;27;43535;-68
2022/03/17 04:33:59;;;;;;;3.20;3.20;;;17.70;64.00;;;;;;5087659;27;43937;-69
2022/03/17 04:36:27;;;;;;;3.70;3.60;;;17.70;64.20;;;;;;5087214;27;44210;-68
2022/03/17 04:38:57;;;;;;;3.50;3.40;;;17.60;64.30;;;;;;5069243;28;43991;-68
2022/03/17 04:41:24;;;;;;;3.50;3.40;;;17.60;64.50;;;;;;5088014;27;43957;-69
2022/03/17 04:43:52;;;;;;;3.53;3.43;;;17.50;64.60;;;;;;5069063;28;44891;-69
2022/03/17 04:46:21;;;;;;;3.30;3.27;;;17.50;64.80;;;;;;5087661;27;44019;-69
2022/03/17 04:48:49;;;;;;;3.50;3.40;;;17.40;64.80;;;;;;5086907;27;43911;-69
2022/03/17 04:51:17;;;;;;;3.50;3.40;;;17.40;64.90;;;;;;5087835;27;44002;-69
2022/03/17 04:53:45;;;;;;;3.40;3.30;;;17.40;65.00;;;;;;5086829;27;44002;-68
2022/03/17 04:56:16;;;;;;;3.77;3.67;;;17.40;65.20;;;;;;5087608;27;43765;-68
2022/03/17 04:58:45;;;;;;;4.10;4.00;;;17.40;65.30;;;;;;5086420;27;43479;-69
2022/03/17 05:01:14;;;;;;;3.70;3.60;;;17.60;65.00;;;;;;5088157;27;44019;-69
2022/03/17 05:03:42;;;;;;;3.30;3.10;;;17.80;64.50;;;;;;5086870;27;43626;-69
2022/03/17 05:06:11;;;;;;;3.53;3.43;;;18.00;64.00;;;;;;5099383;27;44092;-69
2022/03/17 05:08:39;;;;;;;3.60;3.50;;;18.10;63.50;;;;;;5106599;27;44010;-68
2022/03/17 05:11:09;;;;;;;3.77;3.67;;;18.10;63.10;;;;;;5107104;27;44165;-69
2022/03/17 05:13:39;;;;;;;3.10;3.00;;;18.00;63.00;;;;;;5106058;27;43934;-68
2022/03/17 05:16:07;;;;;;;3.30;3.30;;;17.90;63.20;;;;;;5087024;27;43892;-68
2022/03/17 05:18:35;;;;;;;3.40;3.30;;;17.80;63.50;;;;;;5106118;27;43392;-68
2022/03/17 05:21:03;;;;;;;3.53;3.43;;;17.80;63.80;;;;;;5069353;28;43910;-68
2022/03/17 05:23:31;;;;;;;3.50;3.40;;;17.70;64.10;;;;;;5106005;27;43720;-68
2022/03/17 05:25:59;;;;;;;3.47;3.37;;;17.60;64.20;;;;;;5080057;27;43983;-68
2022/03/17 05:28:27;;;;;;;3.90;3.80;;;17.60;64.50;;;;;;5087076;27;44074;-68
2022/03/17 05:30:57;;;;;;;3.60;3.50;;;17.50;64.50;;;;;;5087559;27;43838;-68
2022/03/17 05:33:24;;;;;;;3.57;3.47;;;17.50;64.80;;;;;;5079801;27;43899;-69
2022/03/17 05:35:52;;;;;;;3.80;3.70;;;17.50;65.10;;;;;;5080332;27;44000;-68
2022/03/17 05:38:20;;;;;;;3.70;3.60;;;17.60;65.40;;;;;;5080478;27;43715;-68
2022/03/17 05:40:48;;;;;;;3.87;3.77;;;17.80;64.20;;;;;;5106268;27;43934;-69
2022/03/17 05:43:17;;;;;;;4.00;3.90;;;17.80;63.90;;;;;;5057330;27;47811;-69
2022/03/17 05:45:45;;;;;;;3.77;3.67;;;17.80;63.90;;;;;;5079823;27;43888;-68
2022/03/17 05:48:14;;;;;;;3.77;3.67;;;17.70;63.90;;;;;;5080310;27;43300;-68
2022/03/17 05:50:45;;;;;;;3.20;3.10;;;17.70;64.20;;;;;;5080220;27;44060;-69
2022/03/17 05:53:12;;;;;;;3.73;3.63;;;17.60;64.30;;;;;;5086738;27;43782;-68
2022/03/17 05:55:40;;;;;;;3.80;3.70;;;17.60;64.50;;;;;;5084865;27;44179;-69
2022/03/17 05:58:09;;;;;;;3.57;3.47;;;17.50;64.60;;;;;;5087336;27;43943;-68
2022/03/17 06:00:37;;;;;;;3.73;3.63;;;17.50;64.80;;;;;;5087096;27;43978;-68
2022/03/17 06:03:05;;;;;;;3.40;3.30;;;17.40;64.80;;;;;;5068571;27;46119;-69
2022/03/17 06:05:34;;;;;;;3.63;3.53;;;17.40;64.90;;;;;;5086500;27;44044;-68
2022/03/17 06:08:08;;;;;;;4.17;4.07;;;17.40;65.00;;;;;;5095050;27;43375;-68
2022/03/17 06:10:37;;;;;;;3.70;3.60;;;17.40;65.30;;;;;;5106517;27;43487;-69
2022/03/17 06:13:06;;;;;;;3.87;3.77;;;17.40;65.30;;;;;;5091155;27;43595;-68
2022/03/17 06:15:34;;;;;;;3.70;3.60;;;17.60;65.70;;;;;;5068066;27;45167;-68
2022/03/17 06:18:04;;;;;;;3.63;3.53;;;17.80;64.40;;;;;;5086770;27;43454;-68
2022/03/17 06:20:39;;;;;;;3.43;3.33;;;18.00;63.80;;;;;;5095783;27;43984;-68
2022/03/17 06:23:07;;;;;;;3.70;3.60;;;18.10;63.40;;;;;;5106040;27;44002;-68
2022/03/17 06:25:36;;;;;;;4.13;3.97;;;18.10;63.20;;;;;;5105384;27;43948;-69
2022/03/17 06:28:07;;;;;;;3.43;3.33;;;18.00;63.10;;;;;;5087930;27;44035;-69
2022/03/17 06:30:36;;;;;;;3.83;3.73;;;18.00;63.30;;;;;;5106332;27;43889;-68
2022/03/17 06:33:04;;;;;;;3.80;3.70;;;17.90;63.60;;;;;;5106167;27;44257;-68
2022/03/17 06:35:33;;;;;;;3.80;3.70;;;17.80;63.90;;;;;;5105552;27;44013;-69
2022/03/17 06:38:03;;;;;;;3.90;3.80;;;17.70;64.10;;;;;;5106150;27;44242;-68
2022/03/17 06:40:31;;;;;;;3.70;3.50;;;17.60;64.20;;;;;;5106094;27;44485;-69
2022/03/17 06:42:58;;;;;;;4.07;3.87;;;17.60;64.50;;;;;;5106136;27;43960;-69
2022/03/17 06:45:27;;;;;;;3.83;3.73;;;17.60;64.60;;;;;;5106113;27;43979;-68
2022/03/17 06:47:55;;;;;;;3.30;3.30;;;17.50;64.90;;;;;;5106262;27;43970;-68
2022/03/17 06:50:23;;;;;;;4.00;3.90;;;17.50;65.70;;;;;;5106210;27;44268;-69
2022/03/17 06:52:51;;;;;;;3.90;3.80;;;17.70;64.60;;;;;;5105510;27;45098;-69
2022/03/17 06:55:20;;;;;;;3.80;3.70;;;17.80;64.10;;;;;;5090136;27;45337;-69
2022/03/17 06:57:48;;;;;;;3.97;3.87;;;17.80;63.90;;;;;;5109140;27;44059;-68
2022/03/17 07:00:19;;;;;;;3.60;3.50;;;17.80;64.00;;;;;;5109617;27;43943;-68
2022/03/17 07:02:47;;;;;;;3.63;3.53;;;17.70;64.00;;;;;;5109084;27;44938;-69
2022/03/17 07:05:15;;;;;;;3.80;3.70;;;17.70;64.20;;;;;;5109135;27;43984;-68
2022/03/17 07:07:44;;;;;;;3.70;3.60;;;17.60;64.40;;;;;;5109200;27;43953;-69
2022/03/17 07:10:12;;;;;;;3.77;3.67;;;17.50;64.50;;;;;;5109692;27;43992;-69
2022/03/17 07:12:43;;;;;;;3.80;3.70;;;17.50;64.70;;;;;;5109083;27;45102;-69
2022/03/17 07:15:11;;;;;;;3.80;3.70;;;17.50;64.90;;;;;;5109423;27;44031;-69
2022/03/17 07:17:40;;;;;;;3.60;3.50;;;17.40;64.90;;;;;;5109515;27;43373;-68
2022/03/17 07:20:10;;;;;;;3.80;3.70;;;17.40;65.00;;;;;;5109636;27;43751;-69
2022/03/17 07:22:39;;;;;;;3.93;3.83;;;17.40;65.10;;;;;;5109057;27;45122;-68
2022/03/17 07:25:09;;;;;;;3.83;3.73;;;17.40;65.30;;;;;;5064117;28;44875;-69
2022/03/17 07:27:40;;;;;;;4.33;4.23;;;17.50;65.40;;;;;;5082600;27;44085;-68
2022/03/17 07:30:11;;;;;;;3.90;3.80;;;17.60;64.80;;;;;;5084104;27;43924;-68
2022/03/17 07:32:39;;;;;;;3.80;3.70;;;17.80;64.30;;;;;;5102765;27;44029;-69
2022/03/17 07:35:08;;;;;;;3.90;3.80;;;18.00;63.70;;;;;;5108647;27;43951;-69
2022/03/17 07:37:36;;;;;;;4.50;4.30;;;18.10;63.20;;;;;;5109131;27;44046;-68
2022/03/17 07:40:05;;;;;;;4.10;4.00;;;18.20;63.10;;;;;;5090478;27;44029;-68
2022/03/17 07:42:32;;;;;;;3.97;3.87;;;18.10;63.10;;;;;;5108270;27;44760;-68
2022/03/17 07:45:37;;;;;;;3.73;3.63;;;18.00;63.30;;;;;;5044967;28;44373;-68
2022/03/17 07:48:23;;;;;;;3.70;3.60;;;17.80;63.50;;;;;;5103800;27;43785;-68
2022/03/17 07:51:00;;;;;;;4.10;4.00;;;17.70;63.90;;;;;;5090908;27;43915;-68
2022/03/17 07:53:27;;;;;;;3.73;3.63;;;17.70;64.10;;;;;;5105701;27;45145;-69
2022/03/17 07:55:55;;;;;;;3.80;3.70;;;17.60;64.30;;;;;;5089243;27;43654;-68
2022/03/17 07:58:24;;;;;;;3.80;3.70;;;17.60;64.50;;;;;;5088881;27;44026;-71
2022/03/17 08:00:53;;;;;;;4.10;4.00;;;17.50;64.60;;;;;;5089074;27;43562;-69
2022/03/17 08:03:21;;;;;;;3.93;3.83;;;17.50;65.00;;;;;;5089108;27;43841;-68
2022/03/17 08:05:50;;;;;;;4.03;3.93;;;17.60;65.00;;;;;;5069010;28;45021;-68
2022/03/17 08:08:18;;;;;;;4.07;3.97;;;17.70;64.50;;;;;;5088655;27;43394;-69
2022/03/17 08:10:46;;;;;;;4.00;3.90;;;17.80;64.10;;;;;;5105726;27;43429;-68
2022/03/17 08:13:14;;;;;;;4.07;3.97;;;17.80;64.10;;;;;;5073041;28;44464;-69
2022/03/17 08:15:42;;;;;;;4.07;3.97;;;17.70;64.00;;;;;;5088018;27;43901;-69
2022/03/17 08:18:12;;;;;;;4.03;3.93;;;17.70;64.20;;;;;;5088218;27;43373;-68
2022/03/17 08:20:40;;;;;;;3.63;3.53;;;17.60;64.30;;;;;;5088422;27;43801;-69
2022/03/17 08:23:08;;;;;;;4.30;4.20;;;17.60;64.50;;;;;;5088476;27;44021;-68
2022/03/17 08:25:36;;;;;;;4.00;3.90;;;17.50;64.60;;;;;;5087502;27;44199;-69
2022/03/17 08:28:08;;;;;;;4.50;4.40;;;17.50;64.70;;;;;;5088580;27;43905;-68
2022/03/17 08:30:36;;;;;;;4.17;4.07;;;17.50;64.90;;;;;;5070397;28;43943;-68
2022/03/17 08:33:04;;;;;;;4.20;4.10;;;17.50;65.00;;;;;;5069845;28;46137;-69
2022/03/17 08:35:33;;;;;;;4.07;3.97;;;17.40;65.00;;;;;;5087989;27;43883;-68
2022/03/17 08:38:01;;;;;;;4.40;4.30;;;17.40;65.10;;;;;;5074326;27;43941;-68
2022/03/17 08:40:29;;;;;;;4.50;4.40;;;17.40;65.40;;;;;;5108535;27;43977;-68
2022/03/17 08:42:57;;;;;;;4.50;4.40;;;17.50;65.30;;;;;;5106973;27;45165;-68
2022/03/17 08:50:59;;;;;;;4.40;4.30;;;18.00;63.50;;;;;;5108509;27;43842;-69
2022/03/17 08:53:27;;;;;;;4.23;4.13;;;18.10;63.20;;;;;;5107343;27;43967;-69
2022/03/17 08:55:55;;;;;;;4.00;3.90;;;18.10;63.20;;;;;;5107217;27;43429;-68
2022/03/17 08:58:23;;;;;;;4.33;4.23;;;18.00;63.30;;;;;;5107667;27;43946;-69
2022/03/17 09:00:51;;;;;;;4.23;4.10;;;17.90;63.50;;;;;;5108050;27;43956;-68
2022/03/17 09:03:22;;;;;;;4.30;4.20;;;17.80;63.80;;;;;;5088240;27;45924;-69
2022/03/17 09:05:53;;;;;;;4.60;4.40;;;17.70;64.00;;;;;;5088632;27;45016;-68
2022/03/17 09:08:22;;;;;;;4.43;4.33;;;17.60;64.20;;;;;;5088957;27;43929;-69
2022/03/17 09:10:50;;;;;;;4.67;4.47;;;17.60;64.40;;;;;;5108844;27;43840;-69
2022/03/17 09:13:18;;;;;;;4.53;4.40;;;17.50;64.60;;;;;;5107101;27;44031;-69
2022/03/17 09:15:46;;;;;;;4.53;4.40;;;17.50;64.80;;;;;;5106994;27;43944;-69
2022/03/17 09:18:15;;;;;;;4.50;4.40;;;17.50;65.10;;;;;;5107247;27;43893;-69
2022/03/17 09:20:42;;;;;;;4.50;4.30;;;17.60;64.80;;;;;;5107254;27;43993;-68
2022/03/17 09:23:10;;;;;;;4.57;4.40;;;17.70;64.30;;;;;;5106882;27;44035;-69
2022/03/17 09:25:40;;;;;;;4.57;4.47;;;17.80;64.10;;;;;;5106575;27;43953;-69
2022/03/17 09:28:08;;;;;;;5.00;4.80;;;17.80;64.10;;;;;;5106941;27;43434;-69
2022/03/17 09:30:36;;;;;;;5.10;4.80;;;17.70;64.80;;;;;;5102892;27;43836;-69
2022/03/17 09:33:05;;;;;;;4.93;4.83;;;17.60;64.10;;;;;;5087126;27;43609;-69
2022/03/17 09:35:34;;;;;;;5.03;4.83;;;17.60;64.40;;;;;;5087306;27;43985;-69
2022/03/17 09:38:03;;;;;;;5.23;5.03;;;17.50;64.50;;;;;;5087618;27;44033;-69
2022/03/17 09:40:31;;;;;;;5.77;5.27;;;17.50;64.70;;;;;;5087617;27;44008;-69
2022/03/17 09:45:49;;;;;;;6.17;5.87;;;17.40;65.20;;;;;;5068437;27;44670;-68
2022/03/17 09:48:18;;;;;;;5.93;5.73;;;17.40;64.90;;;;;;5087004;27;44018;-68
2022/03/17 09:50:46;;;;;;;6.43;5.93;;;17.40;65.00;;;;;;5087227;27;43964;-69
2022/03/17 09:53:14;;;;;;;6.60;6.30;;;17.40;65.10;;;;;;5086701;27;44018;-68
2022/03/17 09:55:43;;;;;;;6.03;5.83;;;17.40;65.30;;;;;;5086770;27;44125;-69
2022/03/17 09:58:13;;;;;;;6.47;6.07;;;17.50;64.90;;;;;;5088285;27;43941;-69
2022/03/17 10:00:50;;;;;;;6.83;6.50;;;17.70;64.50;;;;;;5106626;27;43446;-69
2022/03/17 10:03:20;;;;;;;6.40;6.10;;;17.90;63.80;;;;;;5106235;27;44049;-68
2022/03/17 10:05:48;;;;;;;6.90;6.50;;;18.00;63.30;;;;;;5106283;27;43449;-68
2022/03/17 10:08:21;;;;;;;6.97;6.57;;;18.00;63.10;;;;;;5106757;27;44002;-68
2022/03/17 10:10:49;;;;;;;8.03;7.53;;;18.00;63.20;;;;;;5106734;27;43963;-68
2022/03/17 10:13:20;;;;;;;7.07;6.67;;;17.90;63.10;;;;;;5106524;27;43967;-69
2022/03/17 10:15:49;;;;;;;7.60;7.13;;;17.80;63.50;;;;;;5106021;27;44091;-69
2022/03/17 10:18:23;;;;;;;6.67;6.37;;;17.70;63.70;;;;;;5106415;27;43449;-69
2022/03/17 10:21:10;;;;;;;7.57;7.13;;;17.60;63.80;;;;;;5106797;27;43407;-69
2022/03/17 10:23:46;;;;;;;7.53;7.13;;;17.50;64.10;;;;;;5106095;27;44002;-69
2022/03/17 10:26:29;;;;;;;7.03;6.73;;;17.50;64.30;;;;;;5106196;27;43976;-69
2022/03/17 10:29:08;;;;;;;7.63;7.17;;;17.40;64.40;;;;;;5088809;27;43901;-69
2022/03/17 10:31:56;;;;;;;7.43;7.00;;;17.40;64.90;;;;;;5065362;27;43930;-69
2022/03/17 10:34:26;;;;;;;6.87;6.57;;;17.50;65.10;;;;;;5086809;27;43963;-69
2022/03/17 10:37:07;;;;;;;7.47;7.07;;;17.60;64.50;;;;;;5088859;27;44176;-68
2022/03/17 10:39:43;;;;;;;7.57;7.13;;;17.70;64.20;;;;;;5089684;27;43417;-68
2022/03/17 10:42:12;;;;;;;7.60;7.20;;;17.70;64.00;;;;;;5090824;27;43955;-69
2022/03/17 10:44:42;;;;;;;7.70;7.20;;;17.70;63.90;;;;;;5090206;27;44009;-68
2022/03/17 10:47:10;;;;;;;7.47;7.07;;;17.60;64.00;;;;;;5064770;28;46449;-68
2022/03/17 10:49:38;;;;;;;7.67;7.27;;;17.50;64.10;;;;;;5084749;27;44040;-69
2022/03/17 10:52:07;;;;;;;6.90;6.57;;;17.50;64.50;;;;;;5110192;27;43458;-68
2022/03/17 10:54:35;;;;;;;7.07;6.70;;;17.40;64.50;;;;;;5082595;27;43901;-68
2022/03/17 10:57:05;;;;;;;7.37;6.97;;;17.40;64.60;;;;;;5096744;27;43935;-69
2022/03/17 10:59:40;;;;;;;7.27;6.97;;;17.40;64.70;;;;;;5083220;27;43975;-68
2022/03/17 11:02:09;;;;;;;7.03;6.67;;;17.30;64.90;;;;;;5090051;27;43964;-69
2022/03/17 11:04:38;;;;;;;7.33;6.93;;;17.30;65.00;;;;;;5090572;27;43833;-69
2022/03/17 11:07:07;;;;;;;7.77;7.30;;;17.30;65.10;;;;;;5109696;27;44057;-69
2022/03/17 11:09:36;;;;;;;6.93;6.53;;;17.30;65.50;;;;;;5108356;27;43966;-68
2022/03/17 11:12:05;;;;;;;7.23;6.83;;;17.40;65.30;;;;;;5110021;27;43614;-68
2022/03/17 11:14:33;;;;;;;7.00;6.70;;;17.70;64.80;;;;;;5109180;27;45065;-68
2022/03/17 11:17:04;;;;;;;7.27;6.93;;;17.90;64.20;;;;;;5109300;27;44093;-69
2022/03/17 11:19:33;;;;;;;6.70;6.40;;;18.00;63.50;;;;;;5109155;27;44012;-70
2022/03/17 11:22:08;;;;;;;7.03;6.63;;;18.10;63.10;;;;;;5109374;27;43879;-69
2022/03/17 11:24:36;;;;;;;7.50;7.10;;;18.10;63.00;;;;;;5108588;27;44686;-68
2022/03/17 11:27:09;;;;;;;6.20;6.00;;;18.00;63.10;;;;;;5105295;27;44098;-69
2022/03/17 11:29:41;;;;;;;6.20;5.97;;;17.90;64.10;;;;;;5089147;27;43842;-69
2022/03/17 11:32:10;;;;;;;6.50;6.20;;;17.80;63.60;;;;;;5089654;27;43649;-70
2022/03/17 11:34:41;;;;;;;6.10;5.83;;;17.70;63.90;;;;;;5069834;28;47230;-68
2022/03/17 11:37:30;;;;;;;6.33;6.10;;;17.60;64.10;;;;;;5089361;27;44006;-69
2022/03/17 11:40:03;;;;;;;6.30;6.00;;;17.60;64.40;;;;;;5082228;27;43955;-69
2022/03/17 11:42:36;;;;;;;6.43;6.03;;;17.50;64.50;;;;;;5089038;27;43949;-68
2022/03/17 11:45:40;;;;;;;6.20;5.90;;;17.50;64.80;;;;;;5089221;27;43959;-69
2022/03/17 11:48:12;;;;;;;6.43;6.13;;;17.50;65.10;;;;;;5070445;27;44996;-69
2022/03/17 11:50:48;;;;;;;6.37;5.97;;;17.70;64.70;;;;;;5088883;27;44043;-69
2022/03/17 11:53:21;;;;;;;6.20;5.93;;;17.80;64.20;;;;;;5098460;27;43479;-69
2022/03/17 11:55:52;;;;;;;6.00;5.80;;;17.80;64.00;;;;;;5108308;27;43880;-70
2022/03/17 11:58:24;;;;;;;5.43;5.23;;;17.70;63.80;;;;;;5090014;27;44664;-68
2022/03/17 12:00:53;;;;;;;5.53;5.33;;;17.70;64.10;;;;;;5089967;27;43373;-69
2022/03/17 12:03:31;;;;;;;5.53;5.33;;;17.60;64.20;;;;;;5108961;27;43458;-68
2022/03/17 12:06:09;;;;;;;6.00;5.77;;;17.50;64.40;;;;;;5108771;27;43952;-68
2022/03/17 12:08:38;;;;;;;5.20;5.00;;;17.50;64.60;;;;;;5107624;27;44416;-69
2022/03/17 12:11:07;;;;;;;5.67;5.47;;;17.40;64.60;;;;;;5089753;27;43871;-68
2022/03/17 12:13:36;;;;;;;5.40;5.20;;;17.40;65.50;;;;;;5108457;27;43920;-69
2022/03/17 12:16:05;;;;;;;5.40;5.20;;;17.40;65.00;;;;;;5108093;27;44044;-68
2022/03/17 12:19:00;;;;;;;5.30;5.10;;;17.40;65.10;;;;;;5108021;27;43802;-68
2022/03/17 12:22:05;;;;;;;5.13;5.03;;;17.40;65.20;;;;;;5108636;27;43934;-69
2022/03/17 12:24:36;;;;;;;5.23;5.03;;;17.40;65.50;;;;;;5108080;27;43939;-69
2022/03/17 12:27:05;;;;;;;5.20;5.00;;;17.50;65.10;;;;;;5107917;27;44092;-68
2022/03/17 12:29:33;;;;;;;5.00;4.80;;;17.70;64.60;;;;;;5107723;27;43926;-68
2022/03/17 12:32:05;;;;;;;4.63;4.53;;;17.90;63.90;;;;;;5108076;27;43991;-69
2022/03/17 12:34:34;;;;;;;5.03;4.87;;;18.00;63.30;;;;;;5108126;27;43951;-69
2022/03/17 12:37:02;;;;;;;4.93;4.77;;;18.10;63.10;;;;;;5108074;27;43869;-68
2022/03/17 12:39:40;;;;;;;4.50;4.40;;;18.10;63.00;;;;;;5101814;27;44014;-69
2022/03/17 12:42:17;;;;;;;4.47;4.37;;;18.00;63.20;;;;;;5069819;28;43370;-68
2022/03/17 12:44:53;;;;;;;4.80;4.60;;;17.90;63.50;;;;;;5082639;27;43728;-69
2022/03/17 12:47:21;;;;;;;4.67;4.47;;;17.80;63.80;;;;;;5088181;27;44125;-68
2022/03/17 12:49:49;;;;;;;5.13;4.93;;;17.70;64.00;;;;;;5087501;27;44125;-69
2022/03/17 12:52:20;;;;;;;4.33;4.13;;;17.60;64.20;;;;;;5087709;27;43424;-69
2022/03/17 12:54:50;;;;;;;4.60;4.40;;;17.60;64.50;;;;;;5088258;27;43874;-68
2022/03/17 12:57:18;;;;;;;4.03;3.93;;;17.50;64.50;;;;;;5087833;27;43983;-68
2022/03/17 12:59:46;;;;;;;4.47;4.37;;;17.50;64.70;;;;;;5092270;27;44094;-69
2022/03/17 13:02:17;;;;;;;4.10;4.00;;;17.50;65.10;;;;;;5107571;27;43971;-69
2022/03/17 13:04:46;;;;;;;4.93;4.63;;;17.60;64.90;;;;;;5107814;27;43718;-68
2022/03/17 13:07:15;;;;;;;4.40;4.20;;;17.70;64.30;;;;;;5107316;27;44965;-68
2022/03/17 13:09:43;;;;;;;4.37;4.17;;;17.80;64.00;;;;;;5106688;27;43965;-69
2022/03/17 13:15:04;;;;;;;4.67;4.57;;;17.80;64.00;;;;;;5072790;27;44142;-69
2022/03/17 13:17:40;;;;;;;4.00;3.80;;;17.70;64.10;;;;;;5062627;28;45856;-69
2022/03/17 13:20:11;;;;;;;4.10;4.00;;;17.60;64.30;;;;;;5081414;27;43458;-68
2022/03/17 13:22:40;;;;;;;4.03;3.93;;;17.60;64.50;;;;;;5087860;27;43990;-69
2022/03/17 13:25:10;;;;;;;3.90;3.80;;;17.50;64.60;;;;;;5088151;27;43415;-69